createdAt,value
2019-03-28T00:00:28.083Z,8.80
2019-03-28T00:02:56.054Z,8.80
2019-03-28T00:05:24.147Z,8.80
2019-03-28T00:07:52.432Z,8.80
2019-03-28T00:10:20.428Z,8.80
2019-03-28T00:12:48.636Z,8.80
2019-03-28T00:15:16.642Z,8.80
2019-03-28T00:17:44.635Z,8.80
2019-03-28T00:20:12.670Z,8.80
2019-03-28T00:22:56.063Z,8.80
2019-03-28T00:25:24.067Z,8.80
2019-03-28T00:27:52.095Z,8.80
2019-03-28T00:30:21.634Z,8.80
2019-03-28T00:32:49.582Z,8.70
2019-03-28T00:35:17.732Z,8.70
2019-03-28T00:37:45.802Z,8.70
2019-03-28T00:40:13.842Z,8.70
2019-03-28T00:42:41.850Z,8.70
2019-03-28T00:45:09.962Z,8.70
2019-03-28T00:47:38.130Z,8.70
2019-03-28T00:50:08.188Z,8.70
2019-03-28T00:52:36.461Z,8.70
2019-03-28T00:55:05.081Z,8.60
2019-03-28T00:57:34.273Z,8.60
2019-03-28T01:00:22.348Z,8.60
2019-03-28T01:02:50.377Z,8.60
2019-03-28T01:05:18.529Z,8.60
2019-03-28T01:07:47.212Z,8.70
2019-03-28T01:10:15.454Z,8.70
2019-03-28T01:12:43.434Z,8.80
2019-03-28T01:15:11.551Z,8.70
2019-03-28T01:17:39.497Z,8.70
2019-03-28T01:20:07.546Z,8.70
2019-03-28T01:22:36.626Z,8.60
2019-03-28T01:25:04.629Z,8.60
2019-03-28T01:27:32.625Z,8.60
2019-03-28T01:30:00.624Z,8.60
2019-03-28T01:32:28.698Z,8.60
2019-03-28T01:34:58.216Z,8.50
2019-03-28T01:37:26.442Z,8.50
2019-03-28T01:39:54.378Z,8.50
2019-03-28T01:42:22.384Z,8.50
2019-03-28T01:44:50.882Z,8.50
2019-03-28T01:47:18.889Z,8.50
2019-03-28T01:49:48.933Z,8.50
2019-03-28T01:52:16.813Z,8.50
2019-03-28T01:54:44.676Z,8.50
2019-03-28T01:57:12.944Z,8.50
2019-03-28T01:59:40.967Z,8.50
2019-03-28T02:02:08.874Z,8.40
2019-03-28T02:04:37.046Z,8.40
2019-03-28T02:07:06.171Z,8.40
2019-03-28T02:09:34.139Z,8.40
2019-03-28T02:12:02.138Z,8.40
2019-03-28T02:14:30.079Z,8.40
2019-03-28T02:16:58.181Z,8.40
2019-03-28T02:19:26.271Z,8.40
2019-03-28T02:21:55.449Z,8.40
2019-03-28T02:24:23.559Z,8.40
2019-03-28T02:26:54.046Z,8.40
2019-03-28T02:29:21.992Z,8.40
2019-03-28T02:31:52.973Z,8.40
2019-03-28T02:34:20.926Z,8.40
2019-03-28T02:36:52.799Z,8.30
2019-03-28T02:39:20.718Z,8.30
2019-03-28T02:41:52.134Z,8.40
2019-03-28T02:44:20.283Z,8.30
2019-03-28T02:46:50.956Z,8.30
2019-03-28T02:49:19.704Z,8.30
2019-03-28T02:51:50.009Z,8.30
2019-03-28T02:54:17.985Z,8.20
2019-03-28T02:56:46.055Z,8.30
2019-03-28T02:59:14.018Z,8.20
2019-03-28T03:01:42.192Z,8.20
2019-03-28T03:04:11.360Z,8.20
2019-03-28T03:06:39.647Z,8.20
2019-03-28T03:09:08.962Z,8.20
2019-03-28T03:11:42.468Z,8.30
2019-03-28T03:14:08.302Z,8.30
2019-03-28T03:16:36.723Z,8.30
2019-03-28T03:19:04.870Z,8.20
2019-03-28T03:21:33.000Z,8.20
2019-03-28T03:24:01.085Z,8.20
2019-03-28T03:26:29.143Z,8.20
2019-03-28T03:28:57.302Z,8.10
2019-03-28T03:31:26.510Z,8.10
2019-03-28T03:33:55.195Z,8.10
2019-03-28T03:36:23.366Z,8.10
2019-03-28T03:38:51.349Z,8.10
2019-03-28T03:41:19.450Z,8.10
2019-03-28T03:43:47.559Z,8.10
2019-03-28T03:46:15.613Z,8.10
2019-03-28T03:48:43.639Z,8.10
2019-03-28T03:51:11.667Z,8.00
2019-03-28T03:53:42.488Z,8.00
2019-03-28T03:56:10.500Z,8.00
2019-03-28T03:58:38.776Z,8.00
2019-03-28T04:01:06.711Z,8.00
2019-03-28T04:03:34.954Z,8.00
2019-03-28T04:06:03.333Z,8.00
2019-03-28T04:08:32.469Z,8.00
2019-03-28T04:11:00.442Z,8.00
2019-03-28T04:13:28.535Z,8.00
2019-03-28T04:15:56.577Z,8.00
2019-03-28T04:18:24.577Z,8.00
2019-03-28T04:20:52.635Z,8.00
2019-03-28T04:23:22.887Z,8.00
2019-03-28T04:25:51.045Z,7.90
2019-03-28T04:28:31.821Z,7.90
2019-03-28T04:30:50.661Z,7.90
2019-03-28T04:33:18.711Z,7.90
2019-03-28T04:35:46.765Z,7.90
2019-03-28T04:38:15.632Z,7.80
2019-03-28T04:40:43.717Z,7.90
2019-03-28T04:43:11.775Z,7.80
2019-03-28T04:45:39.890Z,7.80
2019-03-28T04:48:07.852Z,7.80
2019-03-28T04:50:36.229Z,7.80
2019-03-28T04:53:04.250Z,7.80
2019-03-28T04:55:32.323Z,7.70
2019-03-28T04:58:00.338Z,7.70
2019-03-28T05:00:28.352Z,7.70
2019-03-28T05:02:56.934Z,7.70
2019-03-28T05:05:25.588Z,7.60
2019-03-28T05:07:56.424Z,7.70
2019-03-28T05:10:24.573Z,7.60
2019-03-28T05:12:52.694Z,7.60
2019-03-28T05:15:23.139Z,7.60
2019-03-28T05:17:51.329Z,7.60
2019-03-28T05:20:22.654Z,7.50
2019-03-28T05:22:50.661Z,7.50
2019-03-28T05:25:19.115Z,7.50
2019-03-28T05:27:47.313Z,7.50
2019-03-28T05:30:16.127Z,7.50
2019-03-28T05:32:44.408Z,7.50
2019-03-28T05:35:12.595Z,7.50
2019-03-28T05:37:40.652Z,7.50
2019-03-28T05:40:09.634Z,7.50
2019-03-28T05:42:37.685Z,7.60
2019-03-28T05:45:05.904Z,7.60
2019-03-28T05:47:33.980Z,7.60
2019-03-28T05:50:02.065Z,7.60
2019-03-28T05:52:30.131Z,7.60
2019-03-28T05:54:58.108Z,7.60
2019-03-28T05:57:26.291Z,7.60
2019-03-28T05:59:57.084Z,7.60
2019-03-28T06:02:25.190Z,7.60
2019-03-28T06:04:53.238Z,7.60
2019-03-28T06:07:21.288Z,7.60
2019-03-28T06:09:49.362Z,7.60
2019-03-28T06:12:18.978Z,7.60
2019-03-28T06:14:49.998Z,7.60
2019-03-28T06:17:17.892Z,7.70
2019-03-28T06:19:46.156Z,7.70
2019-03-28T06:22:15.384Z,7.70
2019-03-28T06:24:43.703Z,7.70
2019-03-28T06:27:11.745Z,7.80
2019-03-28T06:29:39.935Z,7.90
2019-03-28T06:32:07.936Z,7.90
2019-03-28T06:34:36.038Z,8.00
2019-03-28T06:37:04.206Z,8.00
2019-03-28T06:39:32.224Z,8.00
2019-03-28T06:42:00.911Z,8.10
2019-03-28T06:44:29.037Z,8.10
2019-03-28T06:46:57.030Z,8.10
2019-03-28T06:49:25.336Z,8.20
2019-03-28T06:51:55.968Z,8.30
2019-03-28T06:54:24.497Z,8.30
2019-03-28T06:56:55.182Z,8.40
2019-03-28T06:59:36.277Z,8.40
2019-03-28T07:01:56.635Z,8.40
2019-03-28T07:04:24.781Z,8.60
2019-03-28T07:06:53.484Z,8.60
2019-03-28T07:09:21.738Z,8.60
2019-03-28T07:11:49.953Z,8.60
2019-03-28T07:14:18.301Z,8.60
2019-03-28T07:16:46.623Z,8.70
2019-03-28T07:19:14.757Z,8.70
2019-03-28T07:21:43.092Z,8.70
2019-03-28T07:24:11.243Z,8.80
2019-03-28T07:26:39.351Z,8.80
2019-03-28T07:29:07.333Z,8.80
2019-03-28T07:31:35.817Z,8.90
2019-03-28T07:34:04.039Z,9.00
2019-03-28T07:36:32.620Z,9.10
2019-03-28T07:39:00.631Z,9.10
2019-03-28T07:41:28.618Z,9.20
2019-03-28T07:43:56.574Z,9.30
2019-03-28T07:46:24.721Z,9.50
2019-03-28T07:48:52.890Z,9.70
2019-03-28T07:51:21.062Z,9.90
2019-03-28T07:53:49.075Z,10.00
2019-03-28T07:56:17.522Z,10.10
2019-03-28T07:58:45.627Z,10.30
2019-03-28T08:01:13.512Z,10.50
2019-03-28T08:03:41.464Z,10.70
2019-03-28T08:06:12.789Z,10.90
2019-03-28T08:08:42.604Z,11.20
2019-03-28T08:11:10.282Z,11.40
2019-03-28T08:13:38.322Z,11.50
2019-03-28T08:16:06.266Z,11.70
2019-03-28T08:18:34.489Z,11.80
2019-03-28T08:21:02.673Z,12.00
2019-03-28T08:23:35.044Z,12.10
2019-03-28T08:26:00.814Z,12.20
2019-03-28T08:28:29.093Z,12.30
2019-03-28T08:30:57.164Z,12.40
2019-03-28T08:33:25.082Z,12.60
2019-03-28T08:35:54.690Z,12.80
2019-03-28T08:38:24.957Z,12.90
2019-03-28T08:40:53.076Z,13.10
2019-03-28T08:43:21.158Z,13.20
2019-03-28T08:45:49.317Z,13.20
2019-03-28T08:48:20.678Z,13.10
2019-03-28T08:50:48.624Z,13.00
2019-03-28T08:53:16.676Z,13.00
2019-03-28T08:55:45.206Z,12.90
2019-03-28T08:58:14.281Z,12.90
2019-03-28T09:00:51.666Z,12.80
2019-03-28T09:03:12.444Z,12.80
2019-03-28T09:05:42.421Z,12.80
2019-03-28T09:08:10.364Z,12.80
2019-03-28T09:10:38.666Z,12.70
2019-03-28T09:13:06.673Z,12.70
2019-03-28T09:15:43.493Z,12.70
2019-03-28T09:18:04.943Z,12.70
2019-03-28T09:20:34.141Z,12.80
2019-03-28T09:23:02.138Z,12.90
2019-03-28T09:25:30.200Z,12.90
2019-03-28T09:27:58.345Z,13.00
2019-03-28T09:30:48.251Z,13.00
2019-03-28T09:33:08.784Z,13.00
2019-03-28T09:35:36.859Z,13.20
2019-03-28T09:38:04.898Z,13.30
2019-03-28T09:40:32.985Z,13.50
2019-03-28T09:43:00.987Z,13.60
2019-03-28T09:45:30.151Z,13.60
2019-03-28T09:47:58.310Z,13.70
2019-03-28T09:50:26.520Z,13.70
2019-03-28T09:52:54.595Z,13.70
2019-03-28T09:55:22.890Z,13.70
2019-03-28T09:57:50.734Z,13.70
2019-03-28T10:00:19.509Z,13.80
2019-03-28T10:02:47.568Z,13.90
2019-03-28T10:05:15.602Z,13.90
2019-03-28T10:07:43.667Z,14.00
2019-03-28T10:10:12.163Z,14.00
2019-03-28T10:12:40.190Z,14.10
2019-03-28T10:15:09.267Z,14.10
2019-03-28T10:17:37.332Z,14.20
2019-03-28T10:20:05.834Z,14.20
2019-03-28T10:22:33.906Z,14.30
2019-03-28T10:25:01.933Z,14.30
2019-03-28T10:27:29.897Z,14.30
2019-03-28T10:29:57.866Z,14.40
2019-03-28T10:32:25.990Z,14.50
2019-03-28T10:34:53.951Z,14.50
2019-03-28T10:37:22.034Z,14.50
2019-03-28T10:39:50.029Z,14.40
2019-03-28T10:42:20.593Z,14.50
2019-03-28T10:44:48.769Z,14.60
2019-03-28T10:47:16.695Z,14.60
2019-03-28T10:49:45.153Z,14.60
2019-03-28T10:52:15.434Z,14.60
2019-03-28T10:54:43.689Z,14.70
2019-03-28T10:57:15.578Z,14.60
2019-03-28T10:59:41.688Z,14.60
2019-03-28T11:02:09.820Z,14.60
2019-03-28T11:04:37.775Z,14.70
2019-03-28T11:07:05.839Z,14.70
2019-03-28T11:09:34.556Z,14.70
2019-03-28T11:12:02.858Z,14.70
2019-03-28T11:14:30.999Z,14.80
2019-03-28T11:16:59.172Z,14.80
2019-03-28T11:19:27.243Z,14.80
2019-03-28T11:21:58.542Z,14.80
2019-03-28T11:24:26.884Z,14.80
2019-03-28T11:26:54.913Z,14.80
2019-03-28T11:29:22.880Z,14.70
2019-03-28T11:31:52.520Z,14.90
2019-03-28T11:34:21.030Z,14.90
2019-03-28T11:36:49.087Z,14.90
2019-03-28T11:39:17.971Z,14.90
2019-03-28T11:41:48.841Z,14.90
2019-03-28T11:44:17.262Z,14.90
2019-03-28T11:46:45.192Z,14.80
2019-03-28T11:49:15.018Z,14.80
2019-03-28T11:51:43.149Z,14.70
2019-03-28T11:54:11.812Z,14.70
2019-03-28T11:56:40.129Z,14.60
2019-03-28T11:59:11.211Z,14.60
2019-03-28T12:01:39.905Z,14.50
2019-03-28T12:04:08.255Z,14.50
2019-03-28T12:06:36.462Z,14.60
2019-03-28T12:09:06.678Z,14.70
2019-03-28T12:11:35.204Z,14.80
2019-03-28T12:14:04.004Z,14.80
2019-03-28T12:16:32.427Z,14.80
2019-03-28T12:19:00.726Z,14.80
2019-03-28T12:21:29.284Z,14.80
2019-03-28T12:23:57.206Z,14.80
2019-03-28T12:26:25.158Z,14.90
2019-03-28T12:28:53.242Z,14.90
2019-03-28T12:31:21.443Z,14.90
2019-03-28T12:33:49.446Z,15.00
2019-03-28T12:36:18.748Z,15.10
2019-03-28T12:38:47.089Z,15.20
2019-03-28T12:41:16.258Z,15.20
2019-03-28T12:43:44.202Z,15.20
2019-03-28T12:46:12.183Z,15.20
2019-03-28T12:48:40.327Z,15.20
2019-03-28T12:51:08.286Z,15.20
2019-03-28T12:53:36.642Z,15.10
2019-03-28T12:56:04.894Z,15.00
2019-03-28T12:58:33.141Z,14.90
2019-03-28T13:01:01.361Z,14.70
2019-03-28T13:03:34.817Z,14.60
2019-03-28T13:05:59.347Z,14.50
2019-03-28T13:11:15.268Z,14.50
2019-03-28T13:13:43.220Z,14.60
2019-03-28T13:16:11.206Z,14.60
2019-03-28T13:18:39.261Z,14.60
2019-03-28T13:21:13.520Z,14.60
2019-03-28T13:23:37.185Z,14.50
2019-03-28T13:26:05.303Z,14.50
2019-03-28T13:28:33.316Z,14.40
2019-03-28T13:31:01.279Z,14.40
2019-03-28T13:33:29.226Z,14.40
2019-03-28T13:35:57.533Z,14.40
2019-03-28T13:38:25.561Z,14.30
2019-03-28T13:40:53.646Z,14.30
2019-03-28T13:43:21.731Z,14.30
2019-03-28T13:45:49.835Z,14.20
2019-03-28T13:48:18.277Z,14.20
2019-03-28T13:50:46.345Z,14.10
2019-03-28T13:53:39.405Z,14.10
2019-03-28T13:56:04.660Z,14.10
2019-03-28T13:58:33.641Z,14.20
2019-03-28T14:01:01.620Z,14.30
2019-03-28T14:03:29.998Z,14.40
2019-03-28T14:05:58.282Z,14.50
2019-03-28T14:08:26.349Z,14.50
2019-03-28T14:10:54.526Z,14.50
2019-03-28T14:13:22.543Z,14.60
2019-03-28T14:15:50.845Z,14.60
2019-03-28T14:18:19.155Z,14.60
2019-03-28T14:20:47.430Z,14.50
2019-03-28T14:23:28.096Z,14.50
2019-03-28T14:25:57.961Z,14.50
2019-03-28T14:28:26.228Z,14.50
2019-03-28T14:30:54.382Z,14.60
2019-03-28T14:33:22.528Z,14.60
2019-03-28T14:35:50.803Z,14.60
2019-03-28T14:38:19.352Z,14.50
2019-03-28T14:40:47.613Z,14.40
2019-03-28T14:43:17.313Z,14.30
2019-03-28T14:45:45.449Z,14.20
2019-03-28T14:48:14.139Z,14.10
2019-03-28T14:50:45.057Z,14.00
2019-03-28T14:53:13.462Z,13.90
2019-03-28T14:55:41.600Z,13.80
2019-03-28T14:58:09.787Z,13.80
2019-03-28T15:00:46.996Z,13.80
2019-03-28T15:03:25.572Z,13.80
2019-03-28T15:05:46.510Z,13.90
2019-03-28T15:08:14.919Z,13.90
2019-03-28T15:10:42.894Z,13.90
2019-03-28T15:13:10.864Z,13.90
2019-03-28T15:15:39.050Z,13.90
2019-03-28T15:18:07.244Z,13.90
2019-03-28T15:20:35.383Z,13.80
2019-03-28T15:23:03.523Z,13.90
2019-03-28T15:25:31.651Z,13.90
2019-03-28T15:27:59.802Z,13.90
2019-03-28T15:30:27.783Z,13.90
2019-03-28T15:32:55.932Z,13.80
2019-03-28T15:35:24.058Z,13.80
2019-03-28T15:37:52.156Z,13.80
2019-03-28T15:40:20.253Z,13.90
2019-03-28T15:42:48.559Z,13.80
2019-03-28T15:45:17.345Z,13.90
2019-03-28T15:47:45.367Z,13.90
2019-03-28T15:50:15.416Z,13.80
2019-03-28T15:52:43.623Z,13.80
2019-03-28T15:55:14.704Z,13.70
2019-03-28T15:57:42.874Z,13.70
2019-03-28T16:00:11.273Z,13.60
2019-03-28T16:02:39.555Z,13.60
2019-03-28T16:05:07.688Z,13.50
2019-03-28T16:07:35.900Z,13.50
2019-03-28T16:10:05.078Z,13.40
2019-03-28T16:12:33.122Z,13.40
2019-03-28T16:15:01.626Z,13.40
2019-03-28T16:17:29.843Z,13.30
2019-03-28T16:20:00.751Z,13.30
2019-03-28T16:22:28.958Z,13.30
2019-03-28T16:24:57.040Z,13.30
2019-03-28T16:27:25.184Z,13.30
2019-03-28T16:29:54.415Z,13.30
2019-03-28T16:32:23.880Z,13.30
2019-03-28T16:34:51.864Z,13.30
2019-03-28T16:37:19.968Z,13.30
2019-03-28T16:39:49.993Z,13.20
2019-03-28T16:42:25.363Z,13.20
2019-03-28T16:44:53.488Z,13.30
2019-03-28T16:47:21.897Z,13.20
2019-03-28T16:49:49.878Z,13.30
2019-03-28T16:52:19.692Z,13.30
2019-03-28T16:54:48.367Z,13.30
2019-03-28T16:57:16.825Z,13.40
2019-03-28T16:59:45.210Z,13.40
2019-03-28T17:02:15.274Z,13.30
2019-03-28T17:04:43.463Z,13.30
2019-03-28T17:07:11.723Z,13.20
2019-03-28T17:09:39.805Z,13.20
2019-03-28T17:12:07.918Z,13.10
2019-03-28T17:14:36.047Z,13.10
2019-03-28T17:17:04.194Z,13.10
2019-03-28T17:19:32.396Z,13.00
2019-03-28T17:22:00.586Z,13.00
2019-03-28T17:24:28.651Z,12.90
2019-03-28T17:26:56.562Z,12.90
2019-03-28T17:29:24.666Z,12.90
2019-03-28T17:31:52.641Z,12.90
2019-03-28T17:34:33.744Z,12.90
2019-03-28T17:36:50.296Z,12.90
2019-03-28T17:39:18.782Z,12.80
2019-03-28T17:41:47.063Z,12.80
2019-03-28T17:44:18.348Z,12.70
2019-03-28T17:46:46.276Z,12.70
2019-03-28T17:49:15.406Z,12.60
2019-03-28T17:51:43.466Z,12.60
2019-03-28T17:54:11.957Z,12.50
2019-03-28T17:56:40.097Z,12.50
2019-03-28T17:59:08.299Z,12.50
2019-03-28T18:01:36.418Z,12.50
2019-03-28T18:04:04.571Z,12.50
2019-03-28T18:06:32.626Z,12.50
2019-03-28T18:09:01.816Z,12.50
2019-03-28T18:11:31.262Z,12.50
2019-03-28T18:14:00.840Z,12.50
2019-03-28T18:16:29.103Z,12.50
2019-03-28T18:18:57.235Z,12.40
2019-03-28T18:21:25.180Z,12.40
2019-03-28T18:23:53.335Z,12.40
2019-03-28T18:26:21.463Z,12.40
2019-03-28T18:28:49.530Z,12.30
2019-03-28T18:31:19.468Z,12.30
2019-03-28T18:33:47.536Z,12.30
2019-03-28T18:36:15.748Z,12.30
2019-03-28T18:38:43.898Z,12.30
2019-03-28T18:41:12.714Z,12.30
2019-03-28T18:43:41.049Z,12.20
2019-03-28T18:46:09.147Z,12.30
2019-03-28T18:48:38.383Z,12.40
2019-03-28T18:51:06.668Z,12.30
2019-03-28T18:53:34.787Z,12.30
2019-03-28T18:56:02.926Z,12.20
2019-03-28T18:58:31.751Z,12.20
2019-03-28T19:01:00.042Z,12.20
2019-03-28T19:03:28.166Z,12.20
2019-03-28T19:05:56.902Z,12.10
2019-03-28T19:08:24.989Z,12.10
2019-03-28T19:10:53.227Z,12.10
2019-03-28T19:13:21.372Z,12.10
2019-03-28T19:15:49.996Z,12.00
2019-03-28T19:18:19.053Z,12.00
2019-03-28T19:20:47.009Z,12.00
2019-03-28T19:23:15.814Z,12.00
2019-03-28T19:25:46.735Z,12.10
2019-03-28T19:28:28.206Z,12.20
2019-03-28T19:30:45.275Z,12.20
2019-03-28T19:33:16.495Z,12.10
2019-03-28T19:35:46.650Z,12.00
2019-03-28T19:38:17.375Z,12.00
2019-03-28T19:40:45.370Z,12.00
2019-03-28T19:43:21.008Z,12.00
2019-03-28T19:45:46.407Z,12.00
2019-03-28T19:48:15.170Z,11.90
2019-03-28T19:50:43.260Z,11.90
2019-03-28T19:53:11.929Z,11.90
2019-03-28T19:55:40.348Z,11.90
2019-03-28T19:58:08.471Z,11.90
2019-03-28T20:00:36.785Z,11.90
2019-03-28T20:03:05.187Z,11.90
2019-03-28T20:05:46.427Z,11.90
2019-03-28T20:08:14.771Z,11.90
2019-03-28T20:10:34.690Z,11.90
2019-03-28T20:13:05.263Z,11.90
2019-03-28T20:15:33.357Z,11.90
2019-03-28T20:18:02.061Z,11.80
2019-03-28T20:20:30.372Z,11.80
2019-03-28T20:22:58.565Z,11.80
2019-03-28T20:25:26.599Z,11.80
2019-03-28T20:27:54.545Z,11.70
2019-03-28T20:30:22.722Z,11.70
2019-03-28T20:32:50.656Z,11.70
2019-03-28T20:35:19.089Z,11.70
2019-03-28T20:37:47.203Z,11.70
2019-03-28T20:40:16.152Z,11.70
2019-03-28T20:42:44.235Z,11.70
2019-03-28T20:45:14.039Z,11.60
2019-03-28T20:47:42.186Z,11.60
2019-03-28T20:50:12.352Z,11.70
2019-03-28T20:52:40.951Z,11.70
2019-03-28T20:55:09.496Z,11.70
2019-03-28T20:57:40.342Z,11.60
2019-03-28T21:00:10.119Z,11.60
2019-03-28T21:02:38.392Z,11.60
2019-03-28T21:05:07.315Z,11.60
2019-03-28T21:07:35.754Z,11.60
2019-03-28T21:10:04.879Z,11.60
2019-03-28T21:12:33.096Z,11.60
2019-03-28T21:15:01.321Z,11.50
2019-03-28T21:17:32.052Z,11.50
2019-03-28T21:20:01.659Z,11.50
2019-03-28T21:22:30.997Z,11.50
2019-03-28T21:24:59.135Z,11.50
2019-03-28T21:27:27.513Z,11.50
2019-03-28T21:29:55.767Z,11.50
2019-03-28T21:32:23.791Z,11.50
2019-03-28T21:34:51.891Z,11.60
2019-03-28T21:37:20.195Z,11.50
2019-03-28T21:39:48.487Z,11.50
2019-03-28T21:42:16.550Z,11.50
2019-03-28T21:44:44.788Z,11.50
2019-03-28T21:47:13.338Z,11.50
2019-03-28T21:49:42.469Z,11.50
2019-03-28T21:52:10.729Z,11.40
2019-03-28T21:54:38.848Z,11.40
2019-03-28T21:57:07.350Z,11.40
2019-03-28T21:59:35.684Z,11.40
2019-03-28T22:02:07.413Z,11.40
2019-03-28T22:04:35.700Z,11.40
2019-03-28T22:07:04.755Z,11.40
2019-03-28T22:09:34.059Z,11.40
2019-03-28T22:12:02.866Z,11.40
2019-03-28T22:14:32.352Z,11.50
2019-03-28T22:17:00.464Z,11.40
2019-03-28T22:19:28.471Z,11.40
2019-03-28T22:21:56.619Z,11.40
2019-03-28T22:24:24.730Z,11.40
2019-03-28T22:26:52.714Z,11.30
2019-03-28T22:29:20.947Z,11.30
2019-03-28T22:31:49.239Z,11.30
2019-03-28T22:34:17.514Z,11.30
2019-03-28T22:36:56.685Z,11.30
2019-03-28T22:39:15.495Z,11.30
2019-03-28T22:41:43.771Z,11.30
2019-03-28T22:44:14.272Z,11.30
2019-03-28T22:46:42.071Z,11.30
2019-03-28T22:49:10.137Z,11.30
2019-03-28T22:51:38.281Z,11.30
2019-03-28T22:54:06.436Z,11.20
2019-03-28T22:56:34.551Z,11.20
2019-03-28T22:59:02.647Z,11.30
2019-03-28T23:01:32.986Z,11.20
2019-03-28T23:04:03.433Z,11.20
2019-03-28T23:06:31.910Z,11.20
2019-03-28T23:09:00.066Z,11.20
2019-03-28T23:11:28.208Z,11.20
2019-03-28T23:13:56.308Z,11.20
2019-03-28T23:16:24.423Z,11.20
2019-03-28T23:18:52.572Z,11.20
2019-03-28T23:21:20.582Z,11.20
2019-03-28T23:23:48.423Z,11.20
2019-03-28T23:26:16.591Z,11.10
2019-03-28T23:28:44.874Z,11.10
2019-03-28T23:31:13.119Z,11.10
2019-03-28T23:33:41.081Z,11.10
2019-03-28T23:36:11.294Z,11.10
2019-03-28T23:38:40.637Z,11.10
2019-03-28T23:41:08.643Z,11.20
2019-03-28T23:43:36.763Z,11.30
2019-03-28T23:46:05.974Z,11.20
2019-03-28T23:48:34.049Z,11.20
2019-03-28T23:51:02.114Z,11.20
2019-03-28T23:53:30.099Z,11.10
2019-03-28T23:55:58.276Z,11.10
2019-03-28T23:58:29.901Z,11.10
